createdAt,value
2022-09-06T00:01:12.863Z,11.50
2022-09-06T00:03:40.815Z,13.90
2022-09-06T00:06:16.762Z,13.60
2022-09-06T00:08:47.164Z,13.60
2022-09-06T00:11:17.060Z,13.90
2022-09-06T00:13:45.909Z,11.10
2022-09-06T00:16:21.446Z,15.40
2022-09-06T00:18:53.315Z,8.90
2022-09-06T00:21:25.564Z,11.70
2022-09-06T00:23:54.144Z,14.50
2022-09-06T00:26:23.482Z,12.30
2022-09-06T00:28:51.228Z,11.20
2022-09-06T00:31:23.070Z,15.00
2022-09-06T00:33:51.445Z,11.90
2022-09-06T00:36:21.269Z,10.70
2022-09-06T00:38:49.015Z,9.80
2022-09-06T00:41:17.874Z,9.70
2022-09-06T00:43:46.206Z,11.90
2022-09-06T00:46:21.376Z,13.50
2022-09-06T00:48:56.454Z,10.00
2022-09-06T00:51:29.578Z,12.80
2022-09-06T00:53:58.448Z,14.10
2022-09-06T00:56:27.421Z,13.20
2022-09-06T00:58:55.664Z,12.60
2022-09-06T01:01:23.543Z,16.10
2022-09-06T01:03:51.693Z,15.50
2022-09-06T01:06:25.549Z,16.10
2022-09-06T01:09:39.275Z,15.30
2022-09-06T01:13:02.270Z,16.40
2022-09-06T01:15:54.943Z,13.30
2022-09-06T01:18:49.883Z,14.00
2022-09-06T01:21:26.445Z,18.70
2022-09-06T01:24:46.914Z,17.90
2022-09-06T01:27:20.407Z,18.40
2022-09-06T01:30:00.015Z,16.70
2022-09-06T01:33:03.993Z,20.80
2022-09-06T01:35:56.018Z,21.10
2022-09-06T01:38:23.899Z,20.30
2022-09-06T01:40:51.773Z,19.80
2022-09-06T01:43:30.405Z,25.90
2022-09-06T01:46:07.847Z,22.60
2022-09-06T01:49:15.662Z,25.50
2022-09-06T01:52:14.610Z,24.20
2022-09-06T01:55:05.327Z,30.20
2022-09-06T01:58:19.681Z,29.60
2022-09-06T02:01:21.210Z,26.60
2022-09-06T02:06:29.739Z,28.50
2022-09-06T02:09:09.941Z,26.10
2022-09-06T02:11:45.689Z,26.00
2022-09-06T02:14:20.749Z,27.10
2022-09-06T02:16:53.437Z,24.70
2022-09-06T02:19:27.783Z,25.40
2022-09-06T02:21:59.067Z,24.00
2022-09-06T02:26:59.461Z,24.50
2022-09-06T02:29:28.079Z,24.60
2022-09-06T02:32:21.901Z,27.60
2022-09-06T02:34:55.128Z,22.50
2022-09-06T02:37:27.138Z,21.60
2022-09-06T02:39:56.100Z,25.10
2022-09-06T02:42:25.383Z,20.40
2022-09-06T02:44:53.267Z,21.60
2022-09-06T02:47:20.920Z,20.30
2022-09-06T02:49:49.193Z,26.50
2022-09-06T02:52:17.479Z,22.50
2022-09-06T02:54:45.288Z,23.40
2022-09-06T02:57:13.001Z,21.10
2022-09-06T02:59:40.949Z,19.20
2022-09-06T03:02:08.817Z,23.00
2022-09-06T03:04:36.907Z,20.20
2022-09-06T03:07:04.855Z,20.20
2022-09-06T03:09:32.730Z,21.20
2022-09-06T03:12:00.447Z,20.00
2022-09-06T03:14:28.106Z,20.80
2022-09-06T03:16:56.123Z,21.90
2022-09-06T03:19:24.029Z,22.40
2022-09-06T03:21:51.907Z,23.30
2022-09-06T03:24:19.655Z,22.00
2022-09-06T03:26:47.318Z,23.40
2022-09-06T03:29:15.070Z,26.40
2022-09-06T03:31:42.890Z,23.20
2022-09-06T03:34:11.323Z,25.90
2022-09-06T03:36:39.107Z,25.10
2022-09-06T03:39:07.184Z,27.30
2022-09-06T03:41:35.315Z,24.10
2022-09-06T03:44:03.661Z,20.90
2022-09-06T03:46:31.309Z,24.00
2022-09-06T03:48:59.979Z,25.80
2022-09-06T03:51:27.787Z,26.00
2022-09-06T03:53:55.738Z,26.50
2022-09-06T03:56:23.442Z,25.60
2022-09-06T03:58:51.233Z,24.80
2022-09-06T04:01:19.037Z,25.90
2022-09-06T04:03:47.384Z,26.70
2022-09-06T04:06:15.191Z,26.30
2022-09-06T04:08:42.917Z,28.00
2022-09-06T04:11:10.778Z,26.00
2022-09-06T04:13:38.730Z,29.40
2022-09-06T04:16:06.826Z,25.70
2022-09-06T04:18:34.695Z,26.10
2022-09-06T04:21:02.839Z,24.10
2022-09-06T04:23:30.655Z,26.00
2022-09-06T04:25:59.459Z,28.60
2022-09-06T04:28:27.976Z,23.00
2022-09-06T04:31:03.992Z,24.70
2022-09-06T04:33:35.943Z,27.80
2022-09-06T04:36:08.183Z,23.70
2022-09-06T04:38:42.204Z,27.30
2022-09-06T04:41:13.910Z,26.80
2022-09-06T04:43:43.408Z,25.40
2022-09-06T04:46:30.158Z,28.80
2022-09-06T04:48:58.661Z,27.10
2022-09-06T04:51:29.693Z,25.70
2022-09-06T04:53:57.436Z,31.00
2022-09-06T04:56:26.797Z,32.40
2022-09-06T04:58:55.738Z,39.00
2022-09-06T05:01:26.244Z,37.60
2022-09-06T05:03:56.893Z,38.30
2022-09-06T05:06:25.862Z,34.80
2022-09-06T05:08:53.677Z,36.20
2022-09-06T05:11:21.504Z,33.60
2022-09-06T05:13:50.238Z,38.80
2022-09-06T05:16:18.366Z,36.20
2022-09-06T05:18:46.261Z,38.60
2022-09-06T05:21:14.300Z,39.60
2022-09-06T05:23:42.115Z,40.30
2022-09-06T05:26:09.826Z,37.90
2022-09-06T05:28:37.837Z,36.90
2022-09-06T05:31:25.139Z,37.70
2022-09-06T05:33:54.491Z,44.80
2022-09-06T05:36:23.548Z,40.20
2022-09-06T05:38:52.815Z,41.40
2022-09-06T05:41:21.887Z,36.90
2022-09-06T05:43:49.817Z,35.30
2022-09-06T05:46:18.616Z,35.90
2022-09-06T05:48:54.434Z,36.00
2022-09-06T05:51:22.378Z,35.00
2022-09-06T05:53:50.480Z,37.00
2022-09-06T05:56:19.063Z,40.40
2022-09-06T05:58:46.763Z,44.30
2022-09-06T06:01:27.300Z,38.70
2022-09-06T06:03:58.987Z,44.10
2022-09-06T06:06:33.071Z,40.80
2022-09-06T06:09:01.569Z,36.70
2022-09-06T06:11:31.375Z,35.80
2022-09-06T06:13:59.381Z,36.70
2022-09-06T06:16:27.181Z,42.10
2022-09-06T06:18:55.397Z,25.50
2022-09-06T06:21:27.087Z,34.10
2022-09-06T06:24:01.573Z,34.10
2022-09-06T06:26:33.946Z,31.20
2022-09-06T06:29:02.460Z,34.50
2022-09-06T06:31:33.151Z,30.00
2022-09-06T06:34:03.770Z,30.60
2022-09-06T06:36:34.893Z,33.50
2022-09-06T06:39:08.431Z,30.60
2022-09-06T06:41:36.446Z,26.40
2022-09-06T06:44:09.760Z,30.70
2022-09-06T06:46:39.080Z,32.90
2022-09-06T06:49:06.765Z,27.70
2022-09-06T06:51:39.338Z,27.70
2022-09-06T06:54:07.394Z,30.10
2022-09-06T06:56:40.738Z,28.90
2022-09-06T06:59:08.613Z,29.00
2022-09-06T07:01:37.329Z,28.50
2022-09-06T07:04:05.785Z,27.70
2022-09-06T07:12:27.214Z,28.90
2022-09-06T07:14:55.551Z,30.60
2022-09-06T07:17:23.355Z,27.50
2022-09-06T07:22:40.538Z,26.80
2022-09-06T07:25:15.288Z,29.50
2022-09-06T07:30:19.512Z,32.30
2022-09-06T07:32:47.911Z,30.40
2022-09-06T07:35:16.055Z,28.40
2022-09-06T07:37:43.817Z,31.20
2022-09-06T07:40:11.802Z,33.70
2022-09-06T07:42:39.880Z,29.80
2022-09-06T07:45:08.513Z,27.50
2022-09-06T07:53:15.512Z,30.40
2022-09-06T07:55:45.392Z,26.50
2022-09-06T07:58:14.219Z,29.50
2022-09-06T08:00:42.077Z,29.40
2022-09-06T08:03:10.310Z,27.10
2022-09-06T08:11:14.186Z,28.80
2022-09-06T08:13:42.449Z,26.20
2022-09-06T08:16:12.508Z,24.40
2022-09-06T08:18:40.347Z,19.20
2022-09-06T08:21:12.857Z,23.50
2022-09-06T08:23:48.953Z,23.80
2022-09-06T08:26:18.893Z,24.70
2022-09-06T08:28:47.383Z,15.30
2022-09-06T08:31:17.666Z,22.90
2022-09-06T08:33:47.618Z,14.60
2022-09-06T08:36:15.979Z,16.20
2022-09-06T08:38:43.853Z,19.60
2022-09-06T08:41:14.190Z,14.70
2022-09-06T08:47:10.934Z,18.60
2022-09-06T08:49:46.039Z,19.80
2022-09-06T08:52:35.274Z,22.80
2022-09-06T08:56:04.450Z,19.20
2022-09-06T08:59:02.659Z,18.10
2022-09-06T09:02:03.728Z,22.40
2022-09-06T09:04:34.938Z,26.80
2022-09-06T09:10:18.992Z,18.30
2022-09-06T09:12:48.908Z,16.40
2022-09-06T09:15:20.533Z,17.90
2022-09-06T09:17:51.752Z,16.80
2022-09-06T09:20:21.343Z,20.80
2022-09-06T09:22:49.390Z,20.10
2022-09-06T09:25:24.511Z,17.10
2022-09-06T09:28:00.302Z,22.80
2022-09-06T09:30:53.084Z,18.90
2022-09-06T09:33:32.496Z,16.10
2022-09-06T09:36:07.452Z,21.60
2022-09-06T09:38:44.261Z,17.30
2022-09-06T09:41:30.181Z,16.00
2022-09-06T09:44:04.855Z,18.70
2022-09-06T09:46:36.410Z,15.20
2022-09-06T09:49:04.103Z,19.50
2022-09-06T09:51:44.492Z,20.70
2022-09-06T09:56:49.801Z,18.00
2022-09-06T09:59:44.516Z,17.50
2022-09-06T10:02:39.073Z,16.50
2022-09-06T10:05:12.663Z,17.00
2022-09-06T10:07:57.294Z,19.20
2022-09-06T10:10:34.682Z,11.50
2022-09-06T10:13:22.168Z,15.60
2022-09-06T10:15:53.532Z,13.70
2022-09-06T10:18:21.122Z,16.50
2022-09-06T10:20:59.434Z,13.80
2022-09-06T10:26:51.752Z,16.00
2022-09-06T10:29:52.915Z,14.80
2022-09-06T10:32:47.864Z,13.20
2022-09-06T10:35:35.167Z,14.70
2022-09-06T10:38:43.399Z,15.10
2022-09-06T10:41:55.191Z,16.30
2022-09-06T10:44:41.427Z,18.90
2022-09-06T10:47:13.468Z,12.90
2022-09-06T10:49:47.138Z,15.90
2022-09-06T10:52:25.599Z,12.80
2022-09-06T10:55:02.129Z,22.80
2022-09-06T11:00:33.904Z,16.50
2022-09-06T11:06:12.804Z,18.80
2022-09-06T11:08:53.577Z,11.80
2022-09-06T11:11:49.356Z,14.20
2022-09-06T11:14:21.014Z,11.50
2022-09-06T11:16:59.196Z,11.50
2022-09-06T11:19:44.193Z,19.40
2022-09-06T11:22:38.710Z,12.20
2022-09-06T11:25:51.380Z,13.40
2022-09-06T11:28:35.374Z,13.10
2022-09-06T11:31:05.709Z,22.70
2022-09-06T11:33:39.880Z,11.40
2022-09-06T11:36:45.218Z,18.10
2022-09-06T11:39:14.931Z,13.10
2022-09-06T11:41:42.890Z,14.40
2022-09-06T11:44:11.020Z,15.20
2022-09-06T11:46:41.996Z,12.30
2022-09-06T11:51:57.126Z,14.60
2022-09-06T11:54:44.226Z,13.50
2022-09-06T11:57:22.488Z,19.00
2022-09-06T12:00:02.100Z,17.40
2022-09-06T12:02:42.373Z,8.80
2022-09-06T12:05:14.476Z,14.60
2022-09-06T12:08:31.760Z,11.90
2022-09-06T12:11:06.428Z,12.40
2022-09-06T12:13:39.305Z,15.40
2022-09-06T12:16:09.366Z,16.60
2022-09-06T12:18:43.115Z,11.70
2022-09-06T12:21:36.508Z,14.80
2022-09-06T12:24:26.124Z,14.50
2022-09-06T12:27:15.975Z,12.50
2022-09-06T12:30:09.530Z,18.50
2022-09-06T12:32:46.842Z,16.00
2022-09-06T12:38:25.212Z,17.90
2022-09-06T12:40:58.431Z,9.90
2022-09-06T12:43:27.088Z,11.10
2022-09-06T12:45:54.875Z,13.50
2022-09-06T12:48:27.262Z,11.40
2022-09-06T12:51:16.147Z,11.70
2022-09-06T12:53:57.078Z,9.90
2022-09-06T12:56:26.983Z,15.50
2022-09-06T12:59:14.178Z,19.30
2022-09-06T13:01:51.146Z,20.90
2022-09-06T13:04:42.455Z,10.80
2022-09-06T13:07:16.105Z,12.30
2022-09-06T13:09:49.597Z,11.10
2022-09-06T13:12:42.453Z,12.20
2022-09-06T13:15:31.636Z,7.20
2022-09-06T13:18:38.180Z,17.20
2022-09-06T13:21:18.919Z,12.10
2022-09-06T13:23:50.933Z,10.00
2022-09-06T13:26:37.648Z,14.70
2022-09-06T13:29:17.217Z,12.50
2022-09-06T13:31:54.778Z,11.50
2022-09-06T13:34:29.682Z,10.10
2022-09-06T13:37:05.916Z,14.60
2022-09-06T13:39:42.132Z,9.50
2022-09-06T13:42:27.569Z,15.10
2022-09-06T13:45:01.283Z,15.40
2022-09-06T13:47:30.143Z,14.00
2022-09-06T13:49:57.806Z,16.60
2022-09-06T13:52:25.929Z,11.90
2022-09-06T13:54:53.562Z,16.60
2022-09-06T13:57:24.475Z,14.30
2022-09-06T13:59:52.535Z,13.70
2022-09-06T14:02:20.942Z,11.90
2022-09-06T14:04:48.718Z,12.90
2022-09-06T14:07:16.633Z,15.40
2022-09-06T14:09:44.435Z,14.90
2022-09-06T14:12:12.346Z,18.30
2022-09-06T14:14:40.245Z,12.40
2022-09-06T14:17:08.151Z,15.90
2022-09-06T14:19:35.992Z,18.50
2022-09-06T14:22:05.583Z,10.60
2022-09-06T14:24:33.589Z,12.60
2022-09-06T14:27:01.881Z,9.30
2022-09-06T14:29:29.706Z,8.70
2022-09-06T14:31:57.406Z,9.10
2022-09-06T14:34:25.751Z,9.10
2022-09-06T14:36:54.131Z,7.30
2022-09-06T14:39:22.319Z,7.70
2022-09-06T14:41:50.577Z,7.80
2022-09-06T14:44:18.241Z,8.30
2022-09-06T14:46:47.745Z,8.10
2022-09-06T14:49:15.817Z,8.50
2022-09-06T14:51:43.624Z,7.30
2022-09-06T14:54:15.728Z,6.20
2022-09-06T14:56:44.185Z,10.30
2022-09-06T14:59:12.344Z,11.30
2022-09-06T15:01:41.109Z,9.20
2022-09-06T15:04:11.112Z,9.10
2022-09-06T15:06:41.144Z,10.70
2022-09-06T15:09:11.235Z,9.80
2022-09-06T15:11:48.435Z,12.80
2022-09-06T15:14:25.888Z,12.50
2022-09-06T15:16:58.012Z,9.40
2022-09-06T15:19:28.958Z,11.50
2022-09-06T15:24:25.804Z,11.90
2022-09-06T15:26:53.593Z,12.70
2022-09-06T15:29:21.370Z,11.90
2022-09-06T15:31:50.799Z,15.30
2022-09-06T15:34:22.062Z,15.70
2022-09-06T15:36:51.206Z,17.40
2022-09-06T15:39:19.371Z,11.50
2022-09-06T15:41:49.996Z,13.70
2022-09-06T15:44:21.033Z,14.40
2022-09-06T15:49:32.151Z,15.10
2022-09-06T15:52:03.426Z,12.70
2022-09-06T15:54:49.641Z,11.90
2022-09-06T15:57:18.232Z,13.70
2022-09-06T15:59:46.746Z,17.30
2022-09-06T16:02:14.819Z,15.80
2022-09-06T16:04:42.702Z,12.60
2022-09-06T16:07:10.805Z,13.50
2022-09-06T16:09:38.963Z,15.10
2022-09-06T16:12:07.005Z,11.60
2022-09-06T16:14:35.634Z,10.70
2022-09-06T16:17:03.498Z,9.30
2022-09-06T16:19:31.450Z,9.60
2022-09-06T16:21:59.199Z,11.20
2022-09-06T16:24:26.964Z,14.60
2022-09-06T16:26:54.929Z,13.40
2022-09-06T16:29:22.644Z,10.70
2022-09-06T16:31:52.673Z,8.40
2022-09-06T16:34:20.314Z,12.70
2022-09-06T16:36:50.082Z,9.10
2022-09-06T16:39:17.877Z,11.30
2022-09-06T16:41:46.605Z,10.80
2022-09-06T16:44:18.435Z,10.90
2022-09-06T16:46:48.646Z,12.50
2022-09-06T16:49:19.138Z,12.40
2022-09-06T16:51:49.288Z,14.70
2022-09-06T16:54:18.846Z,14.00
2022-09-06T16:56:46.603Z,10.80
2022-09-06T16:59:17.060Z,17.40
2022-09-06T17:01:45.569Z,12.80
2022-09-06T17:04:13.988Z,15.50
2022-09-06T17:06:45.552Z,13.70
2022-09-06T17:09:21.057Z,12.00
2022-09-06T17:11:51.972Z,11.90
2022-09-06T17:14:19.707Z,10.20
2022-09-06T17:17:05.862Z,17.00
2022-09-06T17:19:40.661Z,12.10
2022-09-06T17:22:10.604Z,11.90
2022-09-06T17:24:40.688Z,6.50
2022-09-06T17:27:09.217Z,12.10
2022-09-06T17:29:37.323Z,10.90
2022-09-06T17:32:10.031Z,13.70
2022-09-06T17:34:39.912Z,11.90
2022-09-06T17:37:08.566Z,11.70
2022-09-06T17:39:37.426Z,8.10
2022-09-06T17:42:05.727Z,10.20
2022-09-06T17:44:34.851Z,14.50
2022-09-06T17:47:12.506Z,13.00
2022-09-06T17:49:42.629Z,9.20
2022-09-06T17:52:11.439Z,12.30
2022-09-06T17:54:39.307Z,9.90
2022-09-06T17:57:07.206Z,11.70
2022-09-06T17:59:35.923Z,13.70
2022-09-06T18:02:05.196Z,11.80
2022-09-06T18:04:33.368Z,7.20
2022-09-06T18:07:01.331Z,9.40
2022-09-06T18:09:29.192Z,14.90
2022-09-06T18:11:58.586Z,9.70
2022-09-06T18:14:28.570Z,12.90
2022-09-06T18:16:57.007Z,11.40
2022-09-06T18:19:27.439Z,11.20
2022-09-06T18:21:57.115Z,13.20
2022-09-06T18:24:25.027Z,18.50
2022-09-06T18:26:52.858Z,19.60
2022-09-06T18:29:21.766Z,19.70
2022-09-06T18:31:53.400Z,18.50
2022-09-06T18:34:21.931Z,11.90
2022-09-06T18:36:49.756Z,15.00
2022-09-06T18:39:19.066Z,8.70
2022-09-06T18:42:02.012Z,10.00
2022-09-06T18:44:34.390Z,8.90
2022-09-06T18:47:05.621Z,8.30
2022-09-06T18:52:06.157Z,9.80
2022-09-06T18:54:35.070Z,10.50
2022-09-06T18:57:03.314Z,14.40
2022-09-06T18:59:31.246Z,12.80
2022-09-06T19:01:59.281Z,15.20
2022-09-06T19:04:27.419Z,10.80
2022-09-06T19:06:55.159Z,9.70
2022-09-06T19:09:23.310Z,11.80
2022-09-06T19:11:53.042Z,12.10
2022-09-06T19:14:21.680Z,11.90
2022-09-06T19:16:51.434Z,13.80
2022-09-06T19:19:19.367Z,10.80
2022-09-06T19:21:47.555Z,12.30
2022-09-06T19:24:16.179Z,8.90
2022-09-06T19:26:45.309Z,14.10
2022-09-06T19:29:17.567Z,9.50
2022-09-06T19:31:47.571Z,15.60
2022-09-06T19:34:16.791Z,15.50
2022-09-06T19:36:45.574Z,16.60
2022-09-06T19:39:16.440Z,11.50
2022-09-06T19:41:46.903Z,15.40
2022-09-06T19:44:17.452Z,11.50
2022-09-06T19:46:47.014Z,13.90
2022-09-06T19:49:19.778Z,12.70
2022-09-06T19:51:50.422Z,11.90
2022-09-06T19:54:18.485Z,12.80
2022-09-06T19:56:47.058Z,13.70
2022-09-06T19:59:18.834Z,9.70
2022-09-06T20:01:47.662Z,13.80
2022-09-06T20:04:16.173Z,7.70
2022-09-06T20:06:44.517Z,9.60
2022-09-06T20:09:13.489Z,11.60
2022-09-06T20:11:42.537Z,11.80
2022-09-06T20:14:11.727Z,11.50
2022-09-06T20:16:42.083Z,12.50
2022-09-06T20:19:13.062Z,10.70
2022-09-06T20:21:41.361Z,12.20
2022-09-06T20:24:09.469Z,8.40
2022-09-06T20:26:37.879Z,13.00
2022-09-06T20:29:06.965Z,12.60
2022-09-06T20:31:36.655Z,10.10
2022-09-06T20:34:07.073Z,11.00
2022-09-06T20:36:35.375Z,7.40
2022-09-06T20:39:04.438Z,9.70
2022-09-06T20:41:33.719Z,13.10
2022-09-06T20:44:02.269Z,12.80
2022-09-06T20:46:35.115Z,7.00
2022-09-06T20:49:04.797Z,15.70
2022-09-06T20:51:35.553Z,13.00
2022-09-06T20:54:05.250Z,19.90
2022-09-06T20:56:38.020Z,13.40
2022-09-06T20:59:09.681Z,14.80
2022-09-06T21:01:41.952Z,16.00
2022-09-06T21:04:12.859Z,21.60
2022-09-06T21:06:41.559Z,11.70
2022-09-06T21:09:13.239Z,12.90
2022-09-06T21:11:42.582Z,9.20
2022-09-06T21:14:10.609Z,15.30
2022-09-06T21:16:40.534Z,12.40
2022-09-06T21:19:11.057Z,11.00
2022-09-06T21:21:40.142Z,9.20
2022-09-06T21:24:10.000Z,11.00
2022-09-06T21:26:38.265Z,12.30
2022-09-06T21:29:06.035Z,8.70
2022-09-06T21:31:39.864Z,12.40
2022-09-06T21:34:16.897Z,13.00
2022-09-06T21:36:45.485Z,12.40
2022-09-06T21:39:13.912Z,8.90
2022-09-06T21:41:44.044Z,14.00
2022-09-06T21:44:12.797Z,10.00
2022-09-06T21:46:41.253Z,10.00
2022-09-06T21:49:12.813Z,10.80
2022-09-06T21:51:41.648Z,14.10
2022-09-06T21:54:09.721Z,6.50
2022-09-06T21:56:39.400Z,5.30
2022-09-06T21:59:07.872Z,11.90
2022-09-06T22:01:37.850Z,9.40
2022-09-06T22:04:06.911Z,7.30
2022-09-06T22:06:36.523Z,14.30
2022-09-06T22:09:13.311Z,10.90
2022-09-06T22:11:43.698Z,11.30
2022-09-06T22:14:14.494Z,13.00
2022-09-06T22:16:42.739Z,10.80
2022-09-06T22:19:12.025Z,8.70
2022-09-06T22:21:40.296Z,9.80
2022-09-06T22:24:11.106Z,8.70
2022-09-06T22:26:40.990Z,14.50
2022-09-06T22:29:11.291Z,12.90
2022-09-06T22:31:39.934Z,14.10
2022-09-06T22:34:08.283Z,7.10
2022-09-06T22:36:36.515Z,7.00
2022-09-06T22:39:04.720Z,8.10
2022-09-06T22:41:33.917Z,5.10
2022-09-06T22:44:03.011Z,12.90
2022-09-06T22:46:31.519Z,11.00
2022-09-06T22:49:00.664Z,12.20
2022-09-06T22:51:28.440Z,13.10
2022-09-06T22:53:56.247Z,10.60
2022-09-06T22:56:24.512Z,10.30
2022-09-06T22:58:52.357Z,10.70
2022-09-06T23:01:20.235Z,8.80
2022-09-06T23:03:49.274Z,10.30
2022-09-06T23:06:17.181Z,11.00
2022-09-06T23:08:45.478Z,9.90
2022-09-06T23:11:16.738Z,13.50
2022-09-06T23:16:19.377Z,11.10
2022-09-06T23:18:48.417Z,16.10
2022-09-06T23:21:20.180Z,8.70
2022-09-06T23:23:50.794Z,14.50
2022-09-06T23:26:25.793Z,9.80
2022-09-06T23:28:57.069Z,9.80
2022-09-06T23:33:58.922Z,8.90
2022-09-06T23:36:27.695Z,10.80
2022-09-06T23:38:56.195Z,12.60
2022-09-06T23:41:24.938Z,10.10
2022-09-06T23:43:52.825Z,11.20
2022-09-06T23:46:20.640Z,9.30
2022-09-06T23:48:48.429Z,7.50
2022-09-06T23:51:16.239Z,16.30
2022-09-06T23:53:45.203Z,7.30
2022-09-06T23:56:12.959Z,11.60
2022-09-06T23:58:40.781Z,12.30
